Dundee, OR (97115)

4:57 AM PDT on March 25, 2017 (GMT -0700)
Alder Terrace | | Change Station

Elev 200 ft 45.28 °N, 123.02 °W | Updated 20 seconds ago

Mostly Cloudy
Mostly Cloudy
41.4 °F
Feels Like 41 °F
N
0.0
Wind Variable Wind from West
Gusts 0.0 mph

Today
High -- | Low -- °F
--% Chance of Precip.
Yesterday
High -- | Low -- °F
Precip. -- in
Pressure 30.14 in
Visibility 10.0 miles
Clouds Few 3700 ft
Mostly Cloudy 4300 ft
Mostly Cloudy 6000 ft
Windchill 41 °F
Dew Point 40 °F
Humidity 93%
Rainfall 0.00 in
Snow Depth Not available.
7:04 AM 7:31 PM
Waning Crescent, 9% visible
METAR KMMV 251153Z AUTO 17004KT 10SM -RA FEW037 BKN043 BKN060 05/04 A3013 RMK AO2 RAB23 SLP204 P0000 60000 70037 T00500039 10083 20050 50004
Pressure 30.14 in
Visibility 10.0 miles
Clouds Few 3700 ft
Mostly Cloudy 4300 ft
Mostly Cloudy 6000 ft
Windchill 41 °F
Dew Point 40 °F
Humidity 93%
Rainfall 0.00 in
Snow Depth Not available.
7:04 AM 7:31 PM
Waning Crescent, 9% visible
METAR KMMV 251153Z AUTO 17004KT 10SM -RA FEW037 BKN043 BKN060 05/04 A3013 RMK AO2 RAB23 SLP204 P0000 60000 70037 T00500039 10083 20050 50004

Get Severe Weather Alerts

Thanks for signing up!

Be on the lookout for a verification email in your inbox.

You'll start receiving the daily forecast at 8 AM.

×

10-Day Weather Forecast

Almanac

Astronomy

Mar. 25, 2017 Rise Set
Actual Time
Civil Twilight
Nautical Twilight
Astronomical Twilight
Moon
Length of Visible Light
Length of Day
Tomorrow will be .
, % of the Moon is Illuminated

Today's Extremes

State Highs State Lows

Community

WunderPhotos

Upload Photos

1,962,540 photos uploaded!

WunderBlog® & News

Nearby

Air Quality

  Air Quality AQ Index Pollutant
Not available.

Snow Depth

Station Depth Elevation

Earthquake Activity

City Distance Mag. Time & Date
Minimum magnitude displayed is 2.5.

Earthquake Activity

City Distance Mag. Time & Date
Minimum magnitude displayed is 2.5.

Coastal Water Temperatures

Place Temperature

Stations

Nearby Weather Stations

Station Location Temp. Windchill Dew Point Humidity Wind Precip. Elev Updated Type
                   

Watches & Warnings

There are currently no watches in effect.